sensor_id;sensor_type;location;lat;lon;timestamp;P1;durP1;ratioP1;P2;durP2;ratioP2
37931;SDS011;23758;42.640;23.302;2023-09-19T00:00:37;2.80;;;2.60;;
37931;SDS011;23758;42.640;23.302;2023-09-19T00:03:03;3.00;;;2.80;;
37931;SDS011;23758;42.640;23.302;2023-09-19T00:05:33;2.88;;;2.67;;
37931;SDS011;23758;42.640;23.302;2023-09-19T00:08:00;3.05;;;2.85;;
37931;SDS011;23758;42.640;23.302;2023-09-19T00:10:26;3.03;;;2.83;;
37931;SDS011;23758;42.640;23.302;2023-09-19T00:12:55;2.90;;;2.70;;
37931;SDS011;23758;42.640;23.302;2023-09-19T00:15:26;3.10;;;2.90;;
37931;SDS011;23758;42.640;23.302;2023-09-19T00:17:55;3.15;;;2.95;;
37931;SDS011;23758;42.640;23.302;2023-09-19T00:20:21;3.08;;;2.88;;
37931;SDS011;23758;42.640;23.302;2023-09-19T00:22:48;3.53;;;3.33;;
37931;SDS011;23758;42.640;23.302;2023-09-19T00:25:18;2.92;;;2.72;;
37931;SDS011;23758;42.640;23.302;2023-09-19T00:27:47;3.67;;;3.38;;
37931;SDS011;23758;42.640;23.302;2023-09-19T00:30:16;3.22;;;3.03;;
37931;SDS011;23758;42.640;23.302;2023-09-19T00:32:46;3.28;;;3.08;;
37931;SDS011;23758;42.640;23.302;2023-09-19T00:35:15;3.28;;;3.08;;
37931;SDS011;23758;42.640;23.302;2023-09-19T00:37:40;3.58;;;3.38;;
37931;SDS011;23758;42.640;23.302;2023-09-19T00:40:07;3.42;;;3.22;;
37931;SDS011;23758;42.640;23.302;2023-09-19T00:42:37;3.22;;;3.03;;
37931;SDS011;23758;42.640;23.302;2023-09-19T00:45:06;3.40;;;3.20;;
37931;SDS011;23758;42.640;23.302;2023-09-19T00:47:35;3.28;;;3.08;;
37931;SDS011;23758;42.640;23.302;2023-09-19T00:50:02;3.50;;;3.30;;
37931;SDS011;23758;42.640;23.302;2023-09-19T00:52:32;3.30;;;3.10;;
37931;SDS011;23758;42.640;23.302;2023-09-19T00:54:58;3.22;;;3.03;;
37931;SDS011;23758;42.640;23.302;2023-09-19T00:57:25;3.20;;;3.00;;
37931;SDS011;23758;42.640;23.302;2023-09-19T00:59:51;3.00;;;2.80;;
37931;SDS011;23758;42.640;23.302;2023-09-19T01:02:18;3.20;;;3.00;;
37931;SDS011;23758;42.640;23.302;2023-09-19T01:04:44;3.00;;;2.80;;
37931;SDS011;23758;42.640;23.302;2023-09-19T01:07:09;2.80;;;2.60;;
37931;SDS011;23758;42.640;23.302;2023-09-19T01:09:35;3.10;;;2.90;;
37931;SDS011;23758;42.640;23.302;2023-09-19T01:12:02;2.50;;;2.40;;
37931;SDS011;23758;42.640;23.302;2023-09-19T01:17:12;2.63;;;2.42;;
37931;SDS011;23758;42.640;23.302;2023-09-19T01:30:14;2.63;;;2.45;;
37931;SDS011;23758;42.640;23.302;2023-09-19T01:32:43;3.00;;;2.60;;
37931;SDS011;23758;42.640;23.302;2023-09-19T01:35:09;2.60;;;2.40;;
37931;SDS011;23758;42.640;23.302;2023-09-19T01:37:37;2.70;;;2.50;;
37931;SDS011;23758;42.640;23.302;2023-09-19T01:40:07;6.22;;;2.80;;
37931;SDS011;23758;42.640;23.302;2023-09-19T01:42:44;2.85;;;2.65;;
37931;SDS011;23758;42.640;23.302;2023-09-19T01:48:10;2.40;;;2.30;;
37931;SDS011;23758;42.640;23.302;2023-09-19T01:50:48;2.92;;;2.72;;
37931;SDS011;23758;42.640;23.302;2023-09-19T01:56:12;2.72;;;2.53;;
37931;SDS011;23758;42.640;23.302;2023-09-19T02:01:11;2.67;;;2.47;;
37931;SDS011;23758;42.640;23.302;2023-09-19T02:03:38;2.38;;;2.28;;
37931;SDS011;23758;42.640;23.302;2023-09-19T02:06:04;2.80;;;2.60;;
37931;SDS011;23758;42.640;23.302;2023-09-19T02:08:30;2.80;;;2.60;;
37931;SDS011;23758;42.640;23.302;2023-09-19T02:10:58;2.70;;;2.50;;
37931;SDS011;23758;42.640;23.302;2023-09-19T02:13:25;2.70;;;2.50;;
37931;SDS011;23758;42.640;23.302;2023-09-19T02:15:50;2.83;;;2.63;;
37931;SDS011;23758;42.640;23.302;2023-09-19T02:18:16;2.55;;;2.45;;
37931;SDS011;23758;42.640;23.302;2023-09-19T02:20:42;2.70;;;2.50;;
37931;SDS011;23758;42.640;23.302;2023-09-19T02:23:07;2.70;;;2.50;;
37931;SDS011;23758;42.640;23.302;2023-09-19T02:25:33;3.17;;;2.78;;
37931;SDS011;23758;42.640;23.302;2023-09-19T02:28:00;2.80;;;2.60;;
37931;SDS011;23758;42.640;23.302;2023-09-19T02:30:27;2.65;;;2.45;;
37931;SDS011;23758;42.640;23.302;2023-09-19T02:32:53;3.20;;;2.90;;
37931;SDS011;23758;42.640;23.302;2023-09-19T02:35:19;2.80;;;2.60;;
37931;SDS011;23758;42.640;23.302;2023-09-19T02:37:45;2.95;;;2.75;;
37931;SDS011;23758;42.640;23.302;2023-09-19T02:40:11;2.53;;;2.42;;
37931;SDS011;23758;42.640;23.302;2023-09-19T02:42:53;2.90;;;2.70;;
37931;SDS011;23758;42.640;23.302;2023-09-19T02:45:19;3.47;;;3.17;;
37931;SDS011;23758;42.640;23.302;2023-09-19T02:47:45;2.70;;;2.50;;
37931;SDS011;23758;42.640;23.302;2023-09-19T02:50:11;2.90;;;2.70;;
37931;SDS011;23758;42.640;23.302;2023-09-19T02:52:38;2.90;;;2.70;;
37931;SDS011;23758;42.640;23.302;2023-09-19T02:55:08;2.90;;;2.70;;
37931;SDS011;23758;42.640;23.302;2023-09-19T02:57:34;2.58;;;2.40;;
37931;SDS011;23758;42.640;23.302;2023-09-19T03:00:05;2.90;;;2.70;;
37931;SDS011;23758;42.640;23.302;2023-09-19T03:02:36;2.70;;;2.50;;
37931;SDS011;23758;42.640;23.302;2023-09-19T03:05:02;2.92;;;2.72;;
37931;SDS011;23758;42.640;23.302;2023-09-19T03:07:28;2.85;;;2.65;;
37931;SDS011;23758;42.640;23.302;2023-09-19T03:09:54;3.20;;;3.00;;
37931;SDS011;23758;42.640;23.302;2023-09-19T03:12:20;3.03;;;2.80;;
37931;SDS011;23758;42.640;23.302;2023-09-19T03:14:45;3.63;;;3.33;;
37931;SDS011;23758;42.640;23.302;2023-09-19T03:17:11;3.05;;;2.83;;
37931;SDS011;23758;42.640;23.302;2023-09-19T03:19:39;3.20;;;3.00;;
37931;SDS011;23758;42.640;23.302;2023-09-19T03:22:06;3.40;;;3.20;;
37931;SDS011;23758;42.640;23.302;2023-09-19T03:24:32;3.33;;;3.13;;
37931;SDS011;23758;42.640;23.302;2023-09-19T03:27:00;3.20;;;3.00;;
37931;SDS011;23758;42.640;23.302;2023-09-19T03:29:26;3.67;;;3.47;;
37931;SDS011;23758;42.640;23.302;2023-09-19T03:31:52;3.20;;;3.00;;
37931;SDS011;23758;42.640;23.302;2023-09-19T03:34:19;3.47;;;3.28;;
37931;SDS011;23758;42.640;23.302;2023-09-19T03:36:45;3.20;;;3.00;;
37931;SDS011;23758;42.640;23.302;2023-09-19T03:39:11;3.13;;;2.92;;
37931;SDS011;23758;42.640;23.302;2023-09-19T03:41:37;3.42;;;3.22;;
37931;SDS011;23758;42.640;23.302;2023-09-19T03:44:02;3.50;;;3.30;;
37931;SDS011;23758;42.640;23.302;2023-09-19T03:46:30;4.13;;;3.20;;
37931;SDS011;23758;42.640;23.302;2023-09-19T03:48:57;3.50;;;3.30;;
37931;SDS011;23758;42.640;23.302;2023-09-19T03:51:22;3.38;;;3.17;;
37931;SDS011;23758;42.640;23.302;2023-09-19T03:53:48;3.72;;;3.42;;
37931;SDS011;23758;42.640;23.302;2023-09-19T03:56:16;3.45;;;3.25;;
37931;SDS011;23758;42.640;23.302;2023-09-19T03:58:42;3.45;;;3.25;;
37931;SDS011;23758;42.640;23.302;2023-09-19T04:01:07;3.20;;;3.00;;
37931;SDS011;23758;42.640;23.302;2023-09-19T04:03:33;2.95;;;2.75;;
37931;SDS011;23758;42.640;23.302;2023-09-19T04:06:14;3.05;;;2.85;;
37931;SDS011;23758;42.640;23.302;2023-09-19T04:08:40;3.10;;;2.90;;
37931;SDS011;23758;42.640;23.302;2023-09-19T04:11:06;2.92;;;2.72;;
37931;SDS011;23758;42.640;23.302;2023-09-19T04:13:32;3.20;;;3.00;;
37931;SDS011;23758;42.640;23.302;2023-09-19T04:15:57;2.90;;;2.70;;
37931;SDS011;23758;42.640;23.302;2023-09-19T04:18:23;3.15;;;2.95;;
37931;SDS011;23758;42.640;23.302;2023-09-19T04:20:51;3.00;;;2.80;;
37931;SDS011;23758;42.640;23.302;2023-09-19T04:23:17;2.78;;;2.58;;
37931;SDS011;23758;42.640;23.302;2023-09-19T04:25:46;3.00;;;2.80;;
37931;SDS011;23758;42.640;23.302;2023-09-19T04:28:11;3.22;;;3.03;;
37931;SDS011;23758;42.640;23.302;2023-09-19T04:30:37;3.10;;;2.90;;
37931;SDS011;23758;42.640;23.302;2023-09-19T04:33:05;2.88;;;2.67;;
37931;SDS011;23758;42.640;23.302;2023-09-19T04:35:31;3.30;;;3.03;;
37931;SDS011;23758;42.640;23.302;2023-09-19T04:37:57;2.92;;;2.72;;
37931;SDS011;23758;42.640;23.302;2023-09-19T04:40:23;2.88;;;2.67;;
37931;SDS011;23758;42.640;23.302;2023-09-19T04:42:54;2.90;;;2.70;;
37931;SDS011;23758;42.640;23.302;2023-09-19T04:45:24;2.80;;;2.60;;
37931;SDS011;23758;42.640;23.302;2023-09-19T04:47:51;2.60;;;2.40;;
37931;SDS011;23758;42.640;23.302;2023-09-19T04:50:17;3.00;;;2.80;;
37931;SDS011;23758;42.640;23.302;2023-09-19T04:52:44;2.38;;;2.25;;
37931;SDS011;23758;42.640;23.302;2023-09-19T04:55:10;2.55;;;2.38;;
37931;SDS011;23758;42.640;23.302;2023-09-19T04:57:36;2.25;;;2.15;;
37931;SDS011;23758;42.640;23.302;2023-09-19T05:00:02;2.80;;;2.60;;
37931;SDS011;23758;42.640;23.302;2023-09-19T05:02:31;2.90;;;2.28;;
37931;SDS011;23758;42.640;23.302;2023-09-19T05:04:57;3.33;;;3.03;;
37931;SDS011;23758;42.640;23.302;2023-09-19T05:07:25;2.28;;;2.17;;
37931;SDS011;23758;42.640;23.302;2023-09-19T05:09:51;2.40;;;2.20;;
37931;SDS011;23758;42.640;23.302;2023-09-19T05:12:16;2.47;;;2.30;;
37931;SDS011;23758;42.640;23.302;2023-09-19T05:14:43;2.20;;;2.10;;
37931;SDS011;23758;42.640;23.302;2023-09-19T05:17:08;2.20;;;2.10;;
37931;SDS011;23758;42.640;23.302;2023-09-19T05:19:34;2.28;;;2.15;;
37931;SDS011;23758;42.640;23.302;2023-09-19T05:22:00;2.03;;;1.92;;
37931;SDS011;23758;42.640;23.302;2023-09-19T05:24:25;2.17;;;2.08;;
37931;SDS011;23758;42.640;23.302;2023-09-19T05:26:51;2.22;;;2.13;;
37931;SDS011;23758;42.640;23.302;2023-09-19T05:29:17;2.67;;;2.47;;
37931;SDS011;23758;42.640;23.302;2023-09-19T05:31:42;2.22;;;2.13;;
37931;SDS011;23758;42.640;23.302;2023-09-19T05:34:08;2.72;;;2.53;;
37931;SDS011;23758;42.640;23.302;2023-09-19T05:36:34;3.10;;;2.90;;
37931;SDS011;23758;42.640;23.302;2023-09-19T05:39:00;2.83;;;2.63;;
37931;SDS011;23758;42.640;23.302;2023-09-19T05:41:25;2.63;;;2.42;;
37931;SDS011;23758;42.640;23.302;2023-09-19T05:43:51;2.60;;;2.40;;
37931;SDS011;23758;42.640;23.302;2023-09-19T05:46:16;2.10;;;2.00;;
37931;SDS011;23758;42.640;23.302;2023-09-19T05:48:42;2.42;;;2.22;;
37931;SDS011;23758;42.640;23.302;2023-09-19T05:51:09;2.20;;;2.10;;
37931;SDS011;23758;42.640;23.302;2023-09-19T05:53:35;2.13;;;2.03;;
37931;SDS011;23758;42.640;23.302;2023-09-19T05:56:00;2.40;;;2.20;;
37931;SDS011;23758;42.640;23.302;2023-09-19T05:58:26;2.28;;;2.15;;
37931;SDS011;23758;42.640;23.302;2023-09-19T06:00:51;2.67;;;2.47;;
37931;SDS011;23758;42.640;23.302;2023-09-19T06:03:17;2.30;;;2.10;;
37931;SDS011;23758;42.640;23.302;2023-09-19T06:05:43;2.05;;;1.95;;
37931;SDS011;23758;42.640;23.302;2023-09-19T06:08:11;3.25;;;2.80;;
37931;SDS011;23758;42.640;23.302;2023-09-19T06:10:37;1.90;;;1.80;;
37931;SDS011;23758;42.640;23.302;2023-09-19T06:13:03;2.20;;;2.10;;
37931;SDS011;23758;42.640;23.302;2023-09-19T06:15:34;2.17;;;2.03;;
37931;SDS011;23758;42.640;23.302;2023-09-19T06:18:01;1.75;;;1.65;;
37931;SDS011;23758;42.640;23.302;2023-09-19T06:20:27;2.00;;;1.90;;
37931;SDS011;23758;42.640;23.302;2023-09-19T06:22:53;2.00;;;1.90;;
37931;SDS011;23758;42.640;23.302;2023-09-19T06:25:20;1.90;;;1.80;;
37931;SDS011;23758;42.640;23.302;2023-09-19T06:27:47;1.85;;;1.75;;
37931;SDS011;23758;42.640;23.302;2023-09-19T06:30:13;1.77;;;1.67;;
37931;SDS011;23758;42.640;23.302;2023-09-19T06:32:39;2.13;;;2.03;;
37931;SDS011;23758;42.640;23.302;2023-09-19T06:35:08;2.10;;;1.90;;
37931;SDS011;23758;42.640;23.302;2023-09-19T06:37:36;1.70;;;1.60;;
37931;SDS011;23758;42.640;23.302;2023-09-19T06:40:04;1.52;;;1.42;;
37931;SDS011;23758;42.640;23.302;2023-09-19T06:42:34;1.70;;;1.60;;
37931;SDS011;23758;42.640;23.302;2023-09-19T06:45:02;1.70;;;1.60;;
37931;SDS011;23758;42.640;23.302;2023-09-19T06:47:28;2.00;;;1.90;;
37931;SDS011;23758;42.640;23.302;2023-09-19T06:49:55;1.80;;;1.70;;
37931;SDS011;23758;42.640;23.302;2023-09-19T06:52:20;2.05;;;1.95;;
37931;SDS011;23758;42.640;23.302;2023-09-19T06:54:46;2.40;;;2.20;;
37931;SDS011;23758;42.640;23.302;2023-09-19T06:57:12;1.90;;;1.80;;
37931;SDS011;23758;42.640;23.302;2023-09-19T06:59:38;2.15;;;2.05;;
37931;SDS011;23758;42.640;23.302;2023-09-19T07:02:05;2.10;;;2.00;;
37931;SDS011;23758;42.640;23.302;2023-09-19T07:04:31;2.65;;;2.45;;
37931;SDS011;23758;42.640;23.302;2023-09-19T07:06:57;3.75;;;2.13;;
37931;SDS011;23758;42.640;23.302;2023-09-19T07:09:23;2.00;;;1.90;;
37931;SDS011;23758;42.640;23.302;2023-09-19T07:11:49;2.00;;;1.90;;
37931;SDS011;23758;42.640;23.302;2023-09-19T07:14:16;1.95;;;1.85;;
37931;SDS011;23758;42.640;23.302;2023-09-19T07:16:41;2.13;;;2.03;;
37931;SDS011;23758;42.640;23.302;2023-09-19T07:19:09;1.80;;;1.70;;
37931;SDS011;23758;42.640;23.302;2023-09-19T07:21:35;1.75;;;1.65;;
37931;SDS011;23758;42.640;23.302;2023-09-19T07:24:07;2.00;;;1.90;;
37931;SDS011;23758;42.640;23.302;2023-09-19T07:26:34;2.67;;;2.30;;
37931;SDS011;23758;42.640;23.302;2023-09-19T07:28:59;1.90;;;1.80;;
37931;SDS011;23758;42.640;23.302;2023-09-19T07:31:27;2.00;;;1.90;;
37931;SDS011;23758;42.640;23.302;2023-09-19T07:33:53;3.42;;;2.47;;
37931;SDS011;23758;42.640;23.302;2023-09-19T07:36:19;2.00;;;1.90;;
37931;SDS011;23758;42.640;23.302;2023-09-19T07:38:45;10.98;;;2.40;;
37931;SDS011;23758;42.640;23.302;2023-09-19T07:41:10;2.15;;;2.00;;
37931;SDS011;23758;42.640;23.302;2023-09-19T07:43:36;2.03;;;1.92;;
37931;SDS011;23758;42.640;23.302;2023-09-19T07:46:03;2.20;;;2.10;;
37931;SDS011;23758;42.640;23.302;2023-09-19T07:48:37;2.63;;;2.42;;
37931;SDS011;23758;42.640;23.302;2023-09-19T07:51:06;2.03;;;1.92;;
37931;SDS011;23758;42.640;23.302;2023-09-19T07:53:34;2.08;;;1.98;;
37931;SDS011;23758;42.640;23.302;2023-09-19T07:56:06;2.65;;;2.45;;
37931;SDS011;23758;42.640;23.302;2023-09-19T07:58:32;2.30;;;2.20;;
37931;SDS011;23758;42.640;23.302;2023-09-19T08:01:05;2.13;;;2.03;;
37931;SDS011;23758;42.640;23.302;2023-09-19T08:03:31;2.30;;;2.20;;
37931;SDS011;23758;42.640;23.302;2023-09-19T08:05:57;2.15;;;2.05;;
37931;SDS011;23758;42.640;23.302;2023-09-19T08:08:23;2.38;;;2.28;;
37931;SDS011;23758;42.640;23.302;2023-09-19T08:10:52;2.38;;;2.28;;
37931;SDS011;23758;42.640;23.302;2023-09-19T08:13:24;3.05;;;2.85;;
37931;SDS011;23758;42.640;23.302;2023-09-19T08:15:51;2.60;;;2.40;;
37931;SDS011;23758;42.640;23.302;2023-09-19T08:18:20;2.40;;;2.22;;
37931;SDS011;23758;42.640;23.302;2023-09-19T08:20:50;2.60;;;2.40;;
37931;SDS011;23758;42.640;23.302;2023-09-19T08:23:17;2.70;;;2.50;;
37931;SDS011;23758;42.640;23.302;2023-09-19T08:25:47;2.30;;;2.20;;
37931;SDS011;23758;42.640;23.302;2023-09-19T08:28:13;2.90;;;2.70;;
37931;SDS011;23758;42.640;23.302;2023-09-19T08:30:45;2.97;;;2.50;;
37931;SDS011;23758;42.640;23.302;2023-09-19T08:33:10;2.00;;;1.90;;
37931;SDS011;23758;42.640;23.302;2023-09-19T08:35:36;2.30;;;2.20;;
37931;SDS011;23758;42.640;23.302;2023-09-19T08:38:03;2.50;;;2.30;;
37931;SDS011;23758;42.640;23.302;2023-09-19T08:40:32;2.25;;;2.15;;
37931;SDS011;23758;42.640;23.302;2023-09-19T08:43:00;2.58;;;2.38;;
37931;SDS011;23758;42.640;23.302;2023-09-19T08:45:26;2.60;;;2.40;;
37931;SDS011;23758;42.640;23.302;2023-09-19T08:50:31;2.10;;;2.00;;
37931;SDS011;23758;42.640;23.302;2023-09-19T08:52:59;2.00;;;1.90;;
37931;SDS011;23758;42.640;23.302;2023-09-19T08:55:28;1.98;;;1.88;;
37931;SDS011;23758;42.640;23.302;2023-09-19T08:57:59;1.85;;;1.75;;
37931;SDS011;23758;42.640;23.302;2023-09-19T09:00:27;1.92;;;1.83;;
37931;SDS011;23758;42.640;23.302;2023-09-19T09:02:53;2.28;;;2.15;;
37931;SDS011;23758;42.640;23.302;2023-09-19T09:05:19;1.98;;;1.88;;
37931;SDS011;23758;42.640;23.302;2023-09-19T09:07:48;2.00;;;1.90;;
37931;SDS011;23758;42.640;23.302;2023-09-19T09:10:17;2.00;;;1.90;;
37931;SDS011;23758;42.640;23.302;2023-09-19T09:12:46;1.83;;;1.73;;
37931;SDS011;23758;42.640;23.302;2023-09-19T09:15:12;2.15;;;2.05;;
37931;SDS011;23758;42.640;23.302;2023-09-19T09:17:41;2.13;;;2.03;;
37931;SDS011;23758;42.640;23.302;2023-09-19T09:20:08;1.90;;;1.80;;
37931;SDS011;23758;42.640;23.302;2023-09-19T09:22:35;2.00;;;1.90;;
37931;SDS011;23758;42.640;23.302;2023-09-19T09:25:01;2.00;;;1.90;;
37931;SDS011;23758;42.640;23.302;2023-09-19T09:27:29;1.92;;;1.83;;
37931;SDS011;23758;42.640;23.302;2023-09-19T09:29:56;1.73;;;1.63;;
37931;SDS011;23758;42.640;23.302;2023-09-19T09:32:22;1.60;;;1.50;;
37931;SDS011;23758;42.640;23.302;2023-09-19T09:34:54;1.60;;;1.50;;
37931;SDS011;23758;42.640;23.302;2023-09-19T09:37:20;1.58;;;1.48;;
37931;SDS011;23758;42.640;23.302;2023-09-19T09:39:50;1.90;;;1.80;;
37931;SDS011;23758;42.640;23.302;2023-09-19T09:42:36;1.70;;;1.60;;
37931;SDS011;23758;42.640;23.302;2023-09-19T09:47:42;1.60;;;1.50;;
37931;SDS011;23758;42.640;23.302;2023-09-19T09:50:26;1.75;;;1.65;;
37931;SDS011;23758;42.640;23.302;2023-09-19T09:53:04;1.88;;;1.77;;
37931;SDS011;23758;42.640;23.302;2023-09-19T09:55:57;1.80;;;1.50;;
37931;SDS011;23758;42.640;23.302;2023-09-19T09:58:27;1.38;;;1.27;;
37931;SDS011;23758;42.640;23.302;2023-09-19T10:01:00;1.40;;;1.30;;
37931;SDS011;23758;42.640;23.302;2023-09-19T10:03:39;1.50;;;1.40;;
37931;SDS011;23758;42.640;23.302;2023-09-19T10:06:07;2.22;;;2.03;;
37931;SDS011;23758;42.640;23.302;2023-09-19T10:11:42;1.40;;;1.30;;
37931;SDS011;23758;42.640;23.302;2023-09-19T10:14:12;1.50;;;1.40;;
37931;SDS011;23758;42.640;23.302;2023-09-19T10:16:48;1.38;;;1.27;;
37931;SDS011;23758;42.640;23.302;2023-09-19T10:19:36;1.52;;;1.42;;
37931;SDS011;23758;42.640;23.302;2023-09-19T10:22:02;4.07;;;2.17;;
37931;SDS011;23758;42.640;23.302;2023-09-19T10:24:30;1.73;;;1.63;;
37931;SDS011;23758;42.640;23.302;2023-09-19T10:26:59;1.50;;;1.40;;
37931;SDS011;23758;42.640;23.302;2023-09-19T10:29:25;1.70;;;1.38;;
37931;SDS011;23758;42.640;23.302;2023-09-19T10:31:53;1.40;;;1.30;;
37931;SDS011;23758;42.640;23.302;2023-09-19T10:34:19;1.83;;;1.73;;
37931;SDS011;23758;42.640;23.302;2023-09-19T10:36:46;1.50;;;1.40;;
37931;SDS011;23758;42.640;23.302;2023-09-19T10:39:15;1.60;;;1.50;;
37931;SDS011;23758;42.640;23.302;2023-09-19T10:41:50;2.30;;;2.10;;
37931;SDS011;23758;42.640;23.302;2023-09-19T10:44:23;1.70;;;1.60;;
37931;SDS011;23758;42.640;23.302;2023-09-19T10:46:50;3.50;;;1.67;;
37931;SDS011;23758;42.640;23.302;2023-09-19T10:49:17;2.05;;;1.80;;
37931;SDS011;23758;42.640;23.302;2023-09-19T10:51:43;1.55;;;1.45;;
37931;SDS011;23758;42.640;23.302;2023-09-19T10:54:12;1.90;;;1.80;;
37931;SDS011;23758;42.640;23.302;2023-09-19T10:56:50;1.60;;;1.50;;
37931;SDS011;23758;42.640;23.302;2023-09-19T10:59:20;1.60;;;1.50;;
37931;SDS011;23758;42.640;23.302;2023-09-19T11:07:11;1.60;;;1.50;;
37931;SDS011;23758;42.640;23.302;2023-09-19T11:14:54;1.65;;;1.55;;
37931;SDS011;23758;42.640;23.302;2023-09-19T11:30:39;1.80;;;1.70;;
37931;SDS011;23758;42.640;23.302;2023-09-19T11:36:11;1.40;;;1.30;;
37931;SDS011;23758;42.640;23.302;2023-09-19T11:44:32;1.55;;;1.45;;
37931;SDS011;23758;42.640;23.302;2023-09-19T11:46:51;1.48;;;1.38;;
37931;SDS011;23758;42.640;23.302;2023-09-19T11:49:18;2.28;;;1.30;;
37931;SDS011;23758;42.640;23.302;2023-09-19T11:51:49;1.60;;;1.50;;
37931;SDS011;23758;42.640;23.302;2023-09-19T11:54:16;1.40;;;1.30;;
37931;SDS011;23758;42.640;23.302;2023-09-19T11:56:50;1.20;;;1.20;;
37931;SDS011;23758;42.640;23.302;2023-09-19T11:59:25;1.27;;;1.20;;
37931;SDS011;23758;42.640;23.302;2023-09-19T12:02:00;1.33;;;1.23;;
37931;SDS011;23758;42.640;23.302;2023-09-19T12:07:13;1.80;;;1.70;;
37931;SDS011;23758;42.640;23.302;2023-09-19T12:09:51;1.25;;;1.23;;
37931;SDS011;23758;42.640;23.302;2023-09-19T12:12:31;1.40;;;1.30;;
37931;SDS011;23758;42.640;23.302;2023-09-19T12:14:58;1.40;;;1.30;;
37931;SDS011;23758;42.640;23.302;2023-09-19T12:17:34;1.50;;;1.40;;
37931;SDS011;23758;42.640;23.302;2023-09-19T12:20:07;1.40;;;1.30;;
37931;SDS011;23758;42.640;23.302;2023-09-19T12:22:44;3.40;;;1.98;;
37931;SDS011;23758;42.640;23.302;2023-09-19T12:25:11;1.85;;;1.58;;
37931;SDS011;23758;42.640;23.302;2023-09-19T12:27:56;1.40;;;1.30;;
37931;SDS011;23758;42.640;23.302;2023-09-19T12:30:27;1.60;;;1.40;;
37931;SDS011;23758;42.640;23.302;2023-09-19T12:32:54;1.50;;;1.40;;
37931;SDS011;23758;42.640;23.302;2023-09-19T12:35:32;1.95;;;1.85;;
37931;SDS011;23758;42.640;23.302;2023-09-19T12:38:00;1.92;;;1.83;;
37931;SDS011;23758;42.640;23.302;2023-09-19T12:40:26;1.50;;;1.40;;
37931;SDS011;23758;42.640;23.302;2023-09-19T12:42:53;1.95;;;1.77;;
37931;SDS011;23758;42.640;23.302;2023-09-19T12:45:20;1.40;;;1.30;;
37931;SDS011;23758;42.640;23.302;2023-09-19T12:53:56;1.40;;;1.30;;
37931;SDS011;23758;42.640;23.302;2023-09-19T12:56:22;1.20;;;1.20;;
37931;SDS011;23758;42.640;23.302;2023-09-19T13:01:14;1.65;;;1.55;;
37931;SDS011;23758;42.640;23.302;2023-09-19T13:03:40;1.40;;;1.30;;
37931;SDS011;23758;42.640;23.302;2023-09-19T13:06:06;2.28;;;1.98;;
37931;SDS011;23758;42.640;23.302;2023-09-19T13:08:37;1.40;;;1.30;;
37931;SDS011;23758;42.640;23.302;2023-09-19T13:13:44;1.60;;;1.50;;
37931;SDS011;23758;42.640;23.302;2023-09-19T13:16:14;1.45;;;1.35;;
37931;SDS011;23758;42.640;23.302;2023-09-19T13:18:45;1.42;;;1.33;;
37931;SDS011;23758;42.640;23.302;2023-09-19T13:21:12;1.48;;;1.38;;
37931;SDS011;23758;42.640;23.302;2023-09-19T13:23:47;1.50;;;1.40;;
37931;SDS011;23758;42.640;23.302;2023-09-19T13:26:41;1.73;;;1.63;;
37931;SDS011;23758;42.640;23.302;2023-09-19T13:29:07;1.73;;;1.63;;
37931;SDS011;23758;42.640;23.302;2023-09-19T13:31:32;1.52;;;1.42;;
37931;SDS011;23758;42.640;23.302;2023-09-19T13:33:58;1.52;;;1.42;;
37931;SDS011;23758;42.640;23.302;2023-09-19T13:36:24;1.33;;;1.23;;
37931;SDS011;23758;42.640;23.302;2023-09-19T13:38:49;1.40;;;1.30;;
37931;SDS011;23758;42.640;23.302;2023-09-19T13:41:14;1.73;;;1.63;;
37931;SDS011;23758;42.640;23.302;2023-09-19T13:43:40;1.60;;;1.50;;
37931;SDS011;23758;42.640;23.302;2023-09-19T13:46:06;1.40;;;1.30;;
37931;SDS011;23758;42.640;23.302;2023-09-19T13:48:40;1.60;;;1.50;;
37931;SDS011;23758;42.640;23.302;2023-09-19T13:51:05;1.20;;;1.20;;
37931;SDS011;23758;42.640;23.302;2023-09-19T13:53:31;1.65;;;1.50;;
37931;SDS011;23758;42.640;23.302;2023-09-19T13:55:56;1.60;;;1.50;;
37931;SDS011;23758;42.640;23.302;2023-09-19T13:58:21;1.50;;;1.40;;
37931;SDS011;23758;42.640;23.302;2023-09-19T14:00:48;1.40;;;1.30;;
37931;SDS011;23758;42.640;23.302;2023-09-19T14:03:13;1.40;;;1.30;;
37931;SDS011;23758;42.640;23.302;2023-09-19T14:05:39;1.33;;;1.23;;
37931;SDS011;23758;42.640;23.302;2023-09-19T14:08:04;1.58;;;1.48;;
37931;SDS011;23758;42.640;23.302;2023-09-19T14:10:30;1.40;;;1.30;;
37931;SDS011;23758;42.640;23.302;2023-09-19T14:12:56;1.65;;;1.55;;
37931;SDS011;23758;42.640;23.302;2023-09-19T14:15:25;1.58;;;1.48;;
37931;SDS011;23758;42.640;23.302;2023-09-19T14:17:58;1.40;;;1.30;;
37931;SDS011;23758;42.640;23.302;2023-09-19T14:20:24;1.67;;;1.58;;
37931;SDS011;23758;42.640;23.302;2023-09-19T14:22:49;1.52;;;1.42;;
37931;SDS011;23758;42.640;23.302;2023-09-19T14:25:15;1.73;;;1.60;;
37931;SDS011;23758;42.640;23.302;2023-09-19T14:27:41;1.55;;;1.45;;
37931;SDS011;23758;42.640;23.302;2023-09-19T14:30:07;1.35;;;1.25;;
37931;SDS011;23758;42.640;23.302;2023-09-19T14:32:32;1.70;;;1.60;;
37931;SDS011;23758;42.640;23.302;2023-09-19T14:34:58;1.70;;;1.60;;
37931;SDS011;23758;42.640;23.302;2023-09-19T14:37:24;1.60;;;1.50;;
37931;SDS011;23758;42.640;23.302;2023-09-19T14:39:49;1.60;;;1.50;;
37931;SDS011;23758;42.640;23.302;2023-09-19T14:42:15;1.63;;;1.52;;
37931;SDS011;23758;42.640;23.302;2023-09-19T14:44:43;1.65;;;1.55;;
37931;SDS011;23758;42.640;23.302;2023-09-19T14:47:08;1.85;;;1.75;;
37931;SDS011;23758;42.640;23.302;2023-09-19T14:49:34;1.83;;;1.73;;
37931;SDS011;23758;42.640;23.302;2023-09-19T14:52:02;1.48;;;1.38;;
37931;SDS011;23758;42.640;23.302;2023-09-19T14:54:29;1.67;;;1.58;;
37931;SDS011;23758;42.640;23.302;2023-09-19T14:56:55;1.60;;;1.50;;
37931;SDS011;23758;42.640;23.302;2023-09-19T14:59:30;1.92;;;1.60;;
37931;SDS011;23758;42.640;23.302;2023-09-19T15:01:56;1.77;;;1.67;;
37931;SDS011;23758;42.640;23.302;2023-09-19T15:04:23;1.63;;;1.52;;
37931;SDS011;23758;42.640;23.302;2023-09-19T15:06:49;1.60;;;1.50;;
37931;SDS011;23758;42.640;23.302;2023-09-19T15:09:14;2.08;;;1.92;;
37931;SDS011;23758;42.640;23.302;2023-09-19T15:11:40;4.38;;;2.45;;
37931;SDS011;23758;42.640;23.302;2023-09-19T15:14:05;1.73;;;1.63;;
37931;SDS011;23758;42.640;23.302;2023-09-19T15:16:31;1.60;;;1.50;;
37931;SDS011;23758;42.640;23.302;2023-09-19T15:18:57;1.85;;;1.75;;
37931;SDS011;23758;42.640;23.302;2023-09-19T15:21:23;1.70;;;1.60;;
37931;SDS011;23758;42.640;23.302;2023-09-19T15:23:49;1.60;;;1.50;;
37931;SDS011;23758;42.640;23.302;2023-09-19T15:26:15;1.83;;;1.73;;
37931;SDS011;23758;42.640;23.302;2023-09-19T15:28:45;1.67;;;1.58;;
37931;SDS011;23758;42.640;23.302;2023-09-19T15:31:11;1.77;;;1.67;;
37931;SDS011;23758;42.640;23.302;2023-09-19T15:33:37;1.92;;;1.73;;
37931;SDS011;23758;42.640;23.302;2023-09-19T15:36:03;1.60;;;1.50;;
37931;SDS011;23758;42.640;23.302;2023-09-19T15:38:55;1.70;;;1.60;;
37931;SDS011;23758;42.640;23.302;2023-09-19T15:41:30;1.80;;;1.70;;
37931;SDS011;23758;42.640;23.302;2023-09-19T15:43:57;1.67;;;1.58;;
37931;SDS011;23758;42.640;23.302;2023-09-19T15:46:26;1.63;;;1.52;;
37931;SDS011;23758;42.640;23.302;2023-09-19T15:48:56;2.30;;;2.10;;
37931;SDS011;23758;42.640;23.302;2023-09-19T15:51:22;1.92;;;1.83;;
37931;SDS011;23758;42.640;23.302;2023-09-19T15:53:48;2.08;;;1.98;;